Time;durP1;ratioP1;P1;durP2;ratioP2;P2;SDS_P1;SDS_P2;PMS_P1;PMS_P2;Temp;Humidity;BMP_temperature;BMP_pressure;BME280_temperature;BME280_humidity;BME280_pressure;Samples;Min_cycle;Max_cycle;Signal;HPM_P1;HPM_P2
2023/12/28 00:00:47;;;;;;;11.98;4.97;;;;;;;7.13;63.13;100673.47;4138734;28;20054;-67
2023/12/28 00:02:51;;;;;;;8.75;4.68;;;;;;;6.97;63.92;100673.84;4163970;28;20124;-67
2023/12/28 00:04:53;;;;;;;8.82;4.88;;;;;;;7.07;63.23;100669.84;4161632;28;20128;-67
2023/12/28 00:06:57;;;;;;;12.18;5.60;;;;;;;7.08;62.86;100662.13;4161812;28;20041;-67
2023/12/28 00:09:01;;;;;;;8.57;5.15;;;;;;;6.96;63.52;100666.91;4162950;28;20057;-68
2023/12/28 00:11:13;;;;;;;6.60;4.30;;;;;;;6.94;63.77;100665.97;4159373;28;20499;-67
2023/12/28 00:13:16;;;;;;;10.10;5.10;;;;;;;6.92;63.60;100670.22;4162790;28;20120;-67
2023/12/28 00:15:19;;;;;;;10.23;4.70;;;;;;;6.87;63.90;100657.13;4153401;28;20439;-67
2023/12/28 00:17:22;;;;;;;8.23;4.63;;;;;;;6.85;63.85;100668.25;4161728;28;20041;-68
2023/12/28 00:19:25;;;;;;;8.70;4.97;;;;;;;6.93;63.84;100662.50;4161099;28;20480;-68
2023/12/28 00:21:28;;;;;;;17.27;5.20;;;;;;;7.03;63.27;100667.97;4157604;28;20477;-68
2023/12/28 00:23:32;;;;;;;7.70;4.40;;;;;;;7.01;63.02;100664.44;4166280;28;20120;-68
2023/12/28 00:25:36;;;;;;;10.10;4.53;;;;;;;6.99;62.97;100673.06;4164602;28;20033;-68
2023/12/28 00:27:37;;;;;;;7.88;4.43;;;;;;;6.98;63.20;100671.28;4158401;28;20132;-67
2023/12/28 00:29:41;;;;;;;10.60;4.88;;;;;;;7.00;62.84;100671.34;4157654;28;20065;-67
2023/12/28 00:31:44;;;;;;;11.00;4.65;;;;;;;7.01;62.86;100665.34;4161487;28;20041;-67
2023/12/28 00:33:48;;;;;;;7.15;4.80;;;;;;;7.10;62.55;100675.09;4161659;28;20045;-67
2023/12/28 00:35:51;;;;;;;10.65;4.90;;;;;;;7.12;61.44;100688.94;4156133;28;20160;-67
2023/12/28 00:37:54;;;;;;;8.23;4.15;;;;;;;7.28;60.26;100686.00;4163442;28;20042;-67
2023/12/28 00:39:58;;;;;;;6.88;4.15;;;;;;;7.20;61.17;100682.31;4158501;28;20044;-67
2023/12/28 00:42:01;;;;;;;9.73;4.88;;;;;;;7.16;61.30;100693.41;4163014;28;20052;-67
2023/12/28 00:44:06;;;;;;;9.50;5.05;;;;;;;7.23;60.94;100687.59;4153135;28;20042;-67
2023/12/28 00:46:09;;;;;;;9.18;4.65;;;;;;;7.14;61.93;100697.63;4161413;28;20042;-67
2023/12/28 00:48:12;;;;;;;8.35;4.75;;;;;;;7.12;62.28;100691.53;4164226;28;20043;-67
2023/12/28 00:50:16;;;;;;;7.70;5.00;;;;;;;7.06;62.33;100683.59;4164712;28;20069;-67
2023/12/28 00:52:19;;;;;;;9.52;5.35;;;;;;;7.12;62.29;100683.78;4164497;28;20034;-67
2023/12/28 00:54:22;;;;;;;7.82;4.43;;;;;;;7.05;63.13;100677.53;4165277;28;20037;-67
2023/12/28 00:56:25;;;;;;;9.88;5.38;;;;;;;7.01;62.79;100665.34;4145915;28;20050;-67
2023/12/28 00:58:28;;;;;;;6.95;4.28;;;;;;;6.99;63.39;100667.00;4165180;28;20490;-67
2023/12/28 01:00:31;;;;;;;10.23;4.30;;;;;;;7.03;62.83;100655.06;4161643;28;20029;-67
2023/12/28 01:02:34;;;;;;;7.53;4.40;;;;;;;7.00;62.33;100663.59;4164799;28;20065;-67
2023/12/28 01:04:37;;;;;;;8.63;4.65;;;;;;;7.09;61.68;100670.75;4155459;28;20041;-66
2023/12/28 01:06:40;;;;;;;10.30;5.15;;;;;;;7.13;61.58;100667.44;4163493;28;20467;-66
2023/12/28 01:08:43;;;;;;;7.38;4.47;;;;;;;7.16;61.49;100670.13;4147944;28;20042;-66
2023/12/28 01:10:46;;;;;;;8.57;4.15;;;;;;;7.30;59.73;100671.44;4157256;28;20523;-66
2023/12/28 01:12:50;;;;;;;9.70;4.28;;;;;;;7.40;58.83;100680.34;4165450;28;20045;-66
2023/12/28 01:14:53;;;;;;;9.23;4.65;;;;;;;7.48;58.79;100678.88;4164233;28;20124;-66
2023/12/28 01:16:56;;;;;;;9.43;4.22;;;;;;;7.56;57.54;100681.69;4164625;28;20129;-67
2023/12/28 01:18:58;;;;;;;12.75;4.13;;;;;;;7.64;58.14;100685.38;4164332;28;20088;-66
2023/12/28 01:21:01;;;;;;;7.03;3.97;;;;;;;7.74;57.22;100680.47;4163379;28;20466;-68
2023/12/28 01:23:03;;;;;;;7.07;3.92;;;;;;;7.76;57.32;100674.50;4162099;28;20095;-68
2023/12/28 01:25:08;;;;;;;6.65;3.78;;;;;;;7.79;57.97;100676.31;4161044;28;20040;-68
2023/12/28 01:27:11;;;;;;;6.97;3.58;;;;;;;7.82;56.72;100677.28;4163277;28;20033;-69
2023/12/28 01:29:16;;;;;;;6.90;3.70;;;;;;;7.89;56.69;100675.75;4160263;28;20044;-68
2023/12/28 01:31:20;;;;;;;8.23;4.22;;;;;;;7.96;57.26;100676.81;4162028;28;20045;-68
2023/12/28 01:33:23;;;;;;;6.55;3.80;;;;;;;7.94;57.51;100668.97;4163485;28;20087;-68
2023/12/28 01:35:26;;;;;;;7.70;3.67;;;;;;;8.04;56.23;100676.19;4161805;28;20041;-69
2023/12/28 01:37:31;;;;;;;6.65;3.42;;;;;;;7.97;56.13;100682.03;4179851;28;20056;-68
2023/12/28 01:39:34;;;;;;;8.55;3.72;;;;;;;7.99;56.28;100697.59;4162756;28;20075;-68
2023/12/28 01:41:37;;;;;;;5.88;3.22;;;;;;;8.17;56.01;100698.09;4161790;28;20033;-68
2023/12/28 01:43:40;;;;;;;8.35;4.35;;;;;;;8.17;55.93;100692.91;4163690;28;20107;-67
2023/12/28 01:45:45;;;;;;;5.95;3.95;;;;;;;8.19;54.97;100690.38;4154527;28;20497;-67
2023/12/28 01:47:48;;;;;;;;;;;;;;;8.24;55.71;100693.97;4160567;28;20083;-68
2023/12/28 01:49:51;;;;;;;6.80;3.25;;;;;;;8.29;54.87;100696.69;4162989;28;20318;-68
2023/12/28 01:51:55;;;;;;;7.25;3.28;;;;;;;8.43;54.43;100699.66;4151373;28;20037;-67
2023/12/28 01:53:58;;;;;;;7.93;3.38;;;;;;;8.49;54.99;100692.09;4163007;28;20553;-67
2023/12/28 01:56:02;;;;;;;5.70;3.30;;;;;;;8.62;53.88;100701.06;4156288;28;20419;-67
2023/12/28 01:58:04;;;;;;;7.55;3.42;;;;;;;8.70;54.47;100700.44;4161751;28;20108;-67
2023/12/28 02:00:09;;;;;;;6.68;3.08;;;;;;;8.72;54.04;100703.06;4154824;28;20041;-68
2023/12/28 02:02:17;;;;;;;6.15;3.25;;;;;;;8.81;53.79;100708.47;4153881;28;20037;-68
2023/12/28 02:04:26;;;;;;;6.50;3.45;;;;;;;8.83;53.97;100706.78;4177632;28;20095;-67
2023/12/28 02:06:29;;;;;;;9.80;3.70;;;;;;;8.82;54.37;100709.31;4164047;28;20068;-67
2023/12/28 02:08:32;;;;;;;6.90;3.72;;;;;;;8.87;53.55;100702.56;4164273;28;20076;-67
2023/12/28 02:10:35;;;;;;;5.55;3.20;;;;;;;8.88;53.82;100710.38;4162213;28;20069;-67
2023/12/28 02:12:38;;;;;;;6.43;3.00;;;;;;;8.88;54.02;100714.69;4162931;28;20125;-67
2023/12/28 02:14:41;;;;;;;5.20;3.53;;;;;;;8.95;52.60;100718.31;4164155;28;20040;-67
2023/12/28 02:16:48;;;;;;;5.20;3.13;;;;;;;9.06;52.97;100720.31;4156316;28;20033;-68
2023/12/28 02:18:55;;;;;;;5.65;3.25;;;;;;;9.17;51.91;100722.28;4164340;28;20037;-68
2023/12/28 02:20:59;;;;;;;6.78;3.25;;;;;;;9.19;52.29;100725.81;4163241;28;20555;-68
2023/12/28 02:23:02;;;;;;;5.97;3.15;;;;;;;9.23;52.23;100723.31;4164048;28;20037;-68
2023/12/28 02:25:08;;;;;;;7.72;2.92;;;;;;;9.31;52.14;100723.50;4147164;28;20052;-68
2023/12/28 02:27:10;;;;;;;6.18;3.22;;;;;;;9.38;51.97;100725.41;4164227;28;20128;-69
2023/12/28 02:29:13;;;;;;;6.20;3.50;;;;;;;9.38;52.12;100707.25;4163928;28;20037;-68
2023/12/28 02:31:22;;;;;;;6.50;3.33;;;;;;;9.49;50.68;100712.69;4159329;28;20037;-68
2023/12/28 02:33:30;;;;;;;5.20;3.03;;;;;;;9.49;51.68;100715.28;4161433;28;20068;-68
2023/12/28 02:35:37;;;;;;;4.95;2.88;;;;;;;9.51;50.96;100713.59;4163491;28;20041;-68
2023/12/28 02:37:40;;;;;;;7.72;2.90;;;;;;;9.54;50.86;100717.97;4162659;28;20462;-68
2023/12/28 02:39:45;;;;;;;6.65;3.60;;;;;;;9.60;51.13;100703.41;4162780;28;20060;-68
2023/12/28 02:41:49;;;;;;;6.03;3.00;;;;;;;9.63;51.58;100702.59;4156064;28;20439;-68
2023/12/28 02:43:52;;;;;;;7.90;3.38;;;;;;;9.55;51.34;100693.75;4162860;28;20445;-68
2023/12/28 02:45:55;;;;;;;5.97;2.97;;;;;;;9.58;50.74;100706.81;4163329;28;20076;-68
2023/12/28 02:47:59;;;;;;;5.25;2.70;;;;;;;9.62;50.78;100700.84;4157575;28;20029;-67
2023/12/28 02:50:03;;;;;;;6.78;3.15;;;;;;;9.69;50.63;100700.13;4163569;28;20041;-67
2023/12/28 02:52:06;;;;;;;5.93;2.65;;;;;;;9.64;50.65;100698.28;4154441;28;20038;-67
2023/12/28 02:54:09;;;;;;;5.03;2.85;;;;;;;9.68;50.90;100713.97;4159646;28;20080;-67
2023/12/28 02:56:12;;;;;;;5.53;3.00;;;;;;;9.65;50.66;100700.94;4158052;28;20422;-67
2023/12/28 02:58:19;;;;;;;3.30;2.28;;;;;;;9.70;50.99;100686.31;4163322;28;20417;-67
2023/12/28 03:00:21;;;;;;;4.50;2.50;;;;;;;9.71;50.93;100701.06;4146307;28;20420;-67
2023/12/28 03:02:24;;;;;;;5.05;3.13;;;;;;;9.70;49.76;100703.63;4160085;28;20050;-68
2023/12/28 03:04:27;;;;;;;6.22;3.05;;;;;;;9.73;50.81;100714.06;4160964;28;20053;-69
2023/12/28 03:06:30;;;;;;;6.13;2.95;;;;;;;9.74;50.12;100721.88;4161665;28;20128;-68
2023/12/28 03:08:32;;;;;;;5.18;2.70;;;;;;;9.82;50.68;100716.84;4159829;28;20143;-67
2023/12/28 03:10:35;;;;;;;5.78;2.63;;;;;;;9.85;49.96;100714.31;4163474;28;20037;-67
2023/12/28 03:12:38;;;;;;;4.88;2.75;;;;;;;9.87;49.59;100719.53;4162444;28;20030;-67
2023/12/28 03:14:43;;;;;;;5.10;2.53;;;;;;;9.79;49.78;100725.44;4163113;28;20144;-67
2023/12/28 03:16:46;;;;;;;5.55;3.80;;;;;;;9.79;50.19;100730.63;4159710;28;20033;-67
2023/12/28 03:18:49;;;;;;;5.53;2.88;;;;;;;9.81;50.02;100732.41;4163084;28;20068;-67
2023/12/28 03:20:52;;;;;;;5.05;2.83;;;;;;;9.84;49.61;100727.28;4163212;28;20080;-67
2023/12/28 03:22:55;;;;;;;4.30;2.50;;;;;;;9.88;50.09;100739.47;4161485;28;20491;-67
2023/12/28 03:24:58;;;;;;;5.55;2.90;;;;;;;9.87;49.33;100733.44;4157748;28;20458;-68
2023/12/28 03:27:01;;;;;;;7.57;2.95;;;;;;;9.94;49.84;100724.91;4145402;28;20052;-67
2023/12/28 03:29:05;;;;;;;4.22;2.75;;;;;;;9.96;50.21;100724.94;4162947;28;20048;-67
2023/12/28 03:31:10;;;;;;;5.30;2.78;;;;;;;9.90;50.70;100730.88;4145701;28;20489;-67
2023/12/28 03:33:12;;;;;;;5.07;2.70;;;;;;;9.97;50.46;100718.88;4162943;28;20514;-67
2023/12/28 03:35:15;;;;;;;3.42;2.45;;;;;;;9.95;50.55;100726.66;4161514;28;20573;-68
2023/12/28 03:37:18;;;;;;;5.20;2.75;;;;;;;9.94;51.31;100724.91;4142906;28;20037;-68
2023/12/28 03:39:21;;;;;;;6.20;2.97;;;;;;;9.91;52.61;100718.78;4162986;28;20033;-68
2023/12/28 03:41:24;;;;;;;5.10;2.50;;;;;;;9.91;53.65;100718.78;4159016;28;20053;-67
2023/12/28 03:43:27;;;;;;;5.05;2.67;;;;;;;9.83;54.54;100725.50;4162728;28;20508;-67
2023/12/28 03:45:30;;;;;;;5.15;2.35;;;;;;;9.81;55.14;100727.22;4162499;28;20071;-67
2023/12/28 03:47:33;;;;;;;4.22;2.40;;;;;;;9.88;55.04;100734.28;4161309;28;20076;-67
2023/12/28 03:49:36;;;;;;;3.55;2.28;;;;;;;9.83;55.24;100726.41;4162737;28;20029;-67
2023/12/28 03:51:39;;;;;;;5.43;3.13;;;;;;;9.85;55.47;100723.84;4161619;28;20410;-67
2023/12/28 03:53:41;;;;;;;5.68;2.50;;;;;;;9.82;55.26;100722.03;4163881;28;20034;-67
2023/12/28 03:55:44;;;;;;;5.28;3.05;;;;;;;9.90;55.82;100717.91;4162590;28;20067;-67
2023/12/28 03:57:47;;;;;;;5.55;2.95;;;;;;;9.81;55.31;100724.63;4159445;28;20120;-67
2023/12/28 03:59:50;;;;;;;5.50;2.75;;;;;;;9.82;55.57;100740.22;4162635;28;20475;-67
2023/12/28 04:01:53;;;;;;;4.32;2.65;;;;;;;9.79;54.40;100745.34;4155914;28;20104;-67
2023/12/28 04:03:57;;;;;;;4.95;2.63;;;;;;;9.74;55.13;100752.19;4163756;28;20033;-67
2023/12/28 04:06:01;;;;;;;4.80;2.50;;;;;;;9.84;55.08;100753.25;4146008;28;20144;-67
2023/12/28 04:08:04;;;;;;;4.88;2.53;;;;;;;9.87;54.51;100754.19;4162534;28;20099;-67
2023/12/28 04:10:13;;;;;;;8.45;2.97;;;;;;;9.86;55.16;100751.56;4163822;28;20065;-67
2023/12/28 04:12:16;;;;;;;4.72;2.70;;;;;;;9.80;55.47;100754.91;4161527;28;20042;-67
2023/12/28 04:14:19;;;;;;;4.57;2.72;;;;;;;9.79;56.54;100758.34;4161276;28;20041;-67
2023/12/28 04:16:22;;;;;;;5.32;2.30;;;;;;;9.86;57.54;100751.56;4158940;28;20037;-67
2023/12/28 04:18:25;;;;;;;4.70;2.63;;;;;;;9.83;58.63;100751.47;4152845;28;20034;-67
2023/12/28 04:20:30;;;;;;;5.50;2.67;;;;;;;9.79;59.98;100745.34;4176994;28;20042;-68
2023/12/28 04:22:33;;;;;;;5.00;2.60;;;;;;;9.79;60.29;100759.19;4144762;28;20124;-68
2023/12/28 04:24:37;;;;;;;4.18;2.15;;;;;;;9.78;60.63;100765.25;4161368;28;20072;-68
2023/12/28 04:26:40;;;;;;;5.30;2.17;;;;;;;9.79;61.61;100771.31;4161488;28;20042;-66
2023/12/28 04:28:43;;;;;;;3.45;2.13;;;;;;;9.72;61.65;100772.88;4162464;28;20033;-66
2023/12/28 04:30:46;;;;;;;5.28;2.80;;;;;;;9.68;62.32;100776.28;4156670;28;20092;-66
2023/12/28 04:32:49;;;;;;;2.83;1.83;;;;;;;9.65;62.07;100768.44;4155137;28;20095;-66
2023/12/28 04:34:51;;;;;;;5.75;2.83;;;;;;;9.66;62.75;100780.53;4162255;28;20044;-66
2023/12/28 04:36:55;;;;;;;3.40;2.20;;;;;;;9.74;61.87;100772.94;4172023;28;20029;-66
2023/12/28 04:38:58;;;;;;;5.88;2.00;;;;;;;9.70;62.27;100773.72;4162318;28;20103;-66
2023/12/28 04:41:01;;;;;;;3.40;2.10;;;;;;;9.77;62.56;100762.63;4158265;28;20229;-67
2023/12/28 04:43:04;;;;;;;4.97;2.60;;;;;;;9.86;62.11;100761.97;4157300;28;20053;-67
2023/12/28 04:45:08;;;;;;;7.57;2.40;;;;;;;9.91;62.53;100752.53;4161892;28;20140;-66
2023/12/28 04:47:11;;;;;;;4.32;2.38;;;;;;;9.90;62.53;100751.66;4156673;28;20040;-67
2023/12/28 04:49:14;;;;;;;5.28;2.30;;;;;;;9.86;62.59;100756.75;4159203;28;20041;-67
2023/12/28 04:51:18;;;;;;;4.72;2.22;;;;;;;9.80;63.01;100767.88;4157575;28;20509;-67
2023/12/28 04:53:22;;;;;;;4.38;2.50;;;;;;;9.91;62.58;100770.72;4154118;28;20040;-67
2023/12/28 04:55:24;;;;;;;4.00;2.13;;;;;;;9.80;62.64;100760.09;4158450;28;20088;-67
2023/12/28 04:57:28;;;;;;;4.22;2.53;;;;;;;9.86;62.88;100762.81;4158232;28;20033;-67
2023/12/28 04:59:31;;;;;;;5.03;2.47;;;;;;;9.87;63.02;100779.28;4160227;28;20040;-67
2023/12/28 05:01:33;;;;;;;3.53;1.90;;;;;;;9.70;64.18;100777.19;4158496;28;20041;-65
2023/12/28 05:03:36;;;;;;;4.50;2.00;;;;;;;9.72;65.12;100779.81;4163150;28;20623;-66
2023/12/28 05:05:39;;;;;;;6.93;2.45;;;;;;;9.69;65.26;100778.00;4161356;28;20499;-66
2023/12/28 05:07:43;;;;;;;4.53;1.92;;;;;;;9.70;66.40;100779.78;4164939;28;20125;-66
2023/12/28 05:09:47;;;;;;;3.63;1.92;;;;;;;9.67;66.97;100786.63;4160708;28;20485;-66
2023/12/28 05:11:50;;;;;;;4.63;2.08;;;;;;;9.61;67.54;100784.75;4146510;28;20045;-66
2023/12/28 05:13:53;;;;;;;4.18;2.20;;;;;;;9.66;67.77;100790.06;4162257;28;20065;-65
2023/12/28 05:15:56;;;;;;;3.95;2.20;;;;;;;9.74;67.76;100781.59;4165430;28;20491;-66
2023/12/28 05:17:59;;;;;;;5.03;2.17;;;;;;;9.67;68.04;100790.09;4164733;28;20044;-66
2023/12/28 05:20:02;;;;;;;3.55;1.83;;;;;;;9.75;67.71;100779.88;4162369;28;20060;-66
2023/12/28 05:22:08;;;;;;;5.70;2.35;;;;;;;9.73;69.08;100782.44;4157552;28;20458;-66
2023/12/28 05:24:11;;;;;;;4.28;2.05;;;;;;;9.82;69.12;100788.69;4164573;28;20034;-67
2023/12/28 05:26:15;;;;;;;2.80;1.73;;;;;;;9.90;69.03;100784.53;4165629;28;20467;-66
2023/12/28 05:28:18;;;;;;;5.20;2.47;;;;;;;9.81;69.87;100784.34;4162481;28;20079;-66
2023/12/28 05:30:21;;;;;;;4.88;1.83;;;;;;;9.68;70.64;100791.84;4160286;28;20484;-66
2023/12/28 05:32:24;;;;;;;4.25;2.30;;;;;;;9.72;70.65;100792.78;4164834;28;20128;-66
2023/12/28 05:34:27;;;;;;;5.22;2.50;;;;;;;9.82;70.34;100786.09;4165135;28;20099;-66
2023/12/28 05:36:30;;;;;;;6.13;2.15;;;;;;;9.81;70.83;100782.59;4162486;28;20479;-66
2023/12/28 05:38:33;;;;;;;4.20;2.22;;;;;;;9.77;71.17;100788.59;4164317;28;20076;-66
2023/12/28 05:40:36;;;;;;;6.10;1.90;;;;;;;9.71;71.78;100804.91;4179565;28;20041;-66
2023/12/28 05:42:40;;;;;;;4.13;2.05;;;;;;;9.74;71.46;100798.91;4165694;28;20042;-66
2023/12/28 05:44:44;;;;;;;3.80;1.85;;;;;;;9.77;72.03;100792.06;4164377;28;20040;-65
2023/12/28 05:46:47;;;;;;;6.30;2.45;;;;;;;9.78;71.54;100798.13;4164298;28;20048;-66
2023/12/28 05:48:50;;;;;;;4.30;2.10;;;;;;;9.74;72.22;100794.59;4164580;28;20442;-65
2023/12/28 05:50:52;;;;;;;3.65;2.35;;;;;;;9.70;72.90;100789.28;4179541;28;20146;-66
2023/12/28 05:52:55;;;;;;;3.33;1.75;;;;;;;9.68;73.22;100791.84;4161706;28;20038;-66
2023/12/28 05:54:58;;;;;;;4.65;1.83;;;;;;;9.79;73.69;100782.56;4165340;28;20033;-66
2023/12/28 05:57:01;;;;;;;4.30;1.98;;;;;;;9.69;73.96;100788.41;4164259;28;20046;-66
2023/12/28 05:59:06;;;;;;;3.40;1.80;;;;;;;9.67;73.61;100786.63;4165498;28;20045;-65
2023/12/28 06:01:08;;;;;;;5.25;2.00;;;;;;;9.69;73.72;100784.94;4145669;28;20128;-66
2023/12/28 06:03:11;;;;;;;3.97;1.67;;;;;;;9.71;73.76;100789.31;4164123;28;20040;-65
2023/12/28 06:05:13;;;;;;;4.95;2.17;;;;;;;9.66;74.02;100801.31;4160109;28;20045;-65
2023/12/28 06:07:16;;;;;;;4.68;1.90;;;;;;;9.63;74.74;100810.75;4156964;28;20500;-65
2023/12/28 06:09:19;;;;;;;2.15;1.65;;;;;;;9.69;74.22;100809.16;4165220;28;20065;-65
2023/12/28 06:11:22;;;;;;;3.33;2.03;;;;;;;9.69;74.13;100816.94;4162935;28;20048;-65
2023/12/28 06:13:25;;;;;;;3.15;1.88;;;;;;;9.71;75.10;100819.59;4163019;28;20038;-65
2023/12/28 06:15:29;;;;;;;11.50;2.60;;;;;;;9.71;74.37;100824.78;4162714;28;20069;-66
2023/12/28 06:17:32;;;;;;;5.72;2.13;;;;;;;9.65;74.87;100824.63;4159053;28;20038;-65
2023/12/28 06:19:37;;;;;;;4.07;2.10;;;;;;;9.67;74.51;100822.97;4164244;28;20049;-65
2023/12/28 06:21:42;;;;;;;5.30;2.33;;;;;;;9.74;74.67;100817.94;4167696;28;20491;-65
2023/12/28 06:23:45;;;;;;;;;;;;;;;9.64;74.42;100826.38;4162237;28;20319;-65
2023/12/28 06:25:48;;;;;;;3.58;1.73;;;;;;;9.61;74.31;100823.69;4160915;28;20445;-65
2023/12/28 06:27:50;;;;;;;2.15;1.67;;;;;;;9.77;74.64;100830.13;4164925;28;20124;-65
2023/12/28 06:29:54;;;;;;;4.15;1.85;;;;;;;9.68;74.70;100840.28;4163656;28;20539;-65
2023/12/28 06:31:58;;;;;;;4.10;1.90;;;;;;;9.66;74.29;100841.97;4163231;28;20454;-65
2023/12/28 06:34:01;;;;;;;4.65;2.28;;;;;;;9.69;74.75;100848.09;4165018;28;20087;-65
2023/12/28 06:36:06;;;;;;;4.32;2.17;;;;;;;9.72;74.26;100831.72;4163590;28;20502;-66
2023/12/28 06:38:09;;;;;;;2.40;1.77;;;;;;;9.73;74.44;100836.97;4164909;28;20669;-66
2023/12/28 06:40:13;;;;;;;3.22;1.77;;;;;;;9.76;74.28;100842.22;4164780;28;20124;-65
2023/12/28 06:42:16;;;;;;;3.53;2.00;;;;;;;9.88;73.71;100843.34;4163557;28;20037;-65
2023/12/28 06:44:19;;;;;;;2.85;1.88;;;;;;;9.79;74.34;100834.50;4162844;28;20087;-65
2023/12/28 06:46:22;;;;;;;4.10;1.83;;;;;;;9.79;74.40;100837.09;4162225;28;20084;-65
2023/12/28 06:48:27;;;;;;;3.28;1.75;;;;;;;9.80;74.52;100835.41;4164759;28;20103;-65
2023/12/28 06:50:29;;;;;;;4.25;2.28;;;;;;;9.71;74.55;100838.66;4163631;28;20564;-65
2023/12/28 06:52:32;;;;;;;5.30;1.95;;;;;;;9.75;74.76;100837.91;4164587;28;20394;-65
2023/12/28 06:54:35;;;;;;;3.20;2.00;;;;;;;9.78;74.79;100826.69;4164616;28;20108;-65
2023/12/28 06:56:38;;;;;;;3.53;2.20;;;;;;;9.77;74.63;100827.53;4162968;28;20466;-65
2023/12/28 06:58:42;;;;;;;3.67;2.20;;;;;;;9.76;74.95;100831.84;4164548;28;20486;-65
2023/12/28 07:00:45;;;;;;;2.50;1.95;;;;;;;9.75;75.04;100824.00;4159471;28;20068;-65
2023/12/28 07:02:48;;;;;;;3.25;1.63;;;;;;;9.74;74.53;100828.34;4162510;28;20037;-65
2023/12/28 07:04:52;;;;;;;3.28;2.28;;;;;;;9.72;74.75;100827.41;4155095;28;20044;-65
2023/12/28 07:06:55;;;;;;;5.07;1.85;;;;;;;9.74;75.50;100830.94;4150017;28;20034;-65
2023/12/28 07:08:58;;;;;;;5.10;2.58;;;;;;;9.72;75.18;100824.81;4164386;28;20037;-65
2023/12/28 07:11:00;;;;;;;4.47;2.00;;;;;;;9.76;75.56;100839.63;4160056;28;20038;-66
2023/12/28 07:13:03;;;;;;;3.50;1.95;;;;;;;9.79;74.95;100841.41;4156303;28;20105;-65
2023/12/28 07:15:06;;;;;;;7.82;2.45;;;;;;;9.77;75.47;100841.38;4161373;28;20348;-65
2023/12/28 07:17:11;;;;;;;3.20;2.00;;;;;;;9.73;75.66;100839.56;4159100;28;20091;-65
2023/12/28 07:19:13;;;;;;;5.43;1.85;;;;;;;9.76;75.64;100842.22;4159810;28;20042;-65
2023/12/28 07:21:18;;;;;;;4.78;2.10;;;;;;;9.74;75.54;100846.50;4163303;28;20545;-65
2023/12/28 07:23:21;;;;;;;4.32;1.80;;;;;;;9.72;76.21;100849.91;4162295;28;20045;-65
2023/12/28 07:25:24;;;;;;;3.30;1.85;;;;;;;9.72;75.73;100853.38;4153557;28;20517;-65
2023/12/28 07:27:26;;;;;;;3.65;1.90;;;;;;;9.68;76.16;100845.47;4163190;28;20462;-65
2023/12/28 07:29:29;;;;;;;3.08;1.80;;;;;;;9.71;76.03;100850.75;4161740;28;20391;-65
2023/12/28 07:31:32;;;;;;;5.32;1.95;;;;;;;9.66;75.91;100848.03;4160920;28;20468;-65
2023/12/28 07:33:35;;;;;;;5.20;2.17;;;;;;;9.73;76.59;100854.25;4161005;28;20120;-65
2023/12/28 07:35:39;;;;;;;3.65;2.03;;;;;;;9.69;76.24;100870.59;4159805;28;20591;-65
2023/12/28 07:37:42;;;;;;;4.18;2.20;;;;;;;9.71;76.17;100869.81;4162811;28;20033;-65
2023/12/28 07:39:45;;;;;;;3.92;2.00;;;;;;;9.71;76.59;100877.59;4162915;28;20409;-65
2023/12/28 07:41:49;;;;;;;5.47;2.30;;;;;;;9.65;77.23;100872.25;4161278;28;20124;-65
2023/12/28 07:43:52;;;;;;;4.90;2.40;;;;;;;9.66;77.18;100884.38;4162672;28;20044;-65
2023/12/28 07:45:55;;;;;;;3.63;2.05;;;;;;;9.63;76.86;100881.72;4158897;28;20045;-65
2023/12/28 07:47:58;;;;;;;6.28;2.42;;;;;;;9.69;76.75;100879.25;4161739;28;20125;-65
2023/12/28 07:50:02;;;;;;;2.67;1.85;;;;;;;9.76;76.64;100875.09;4160138;28;20040;-65
2023/12/28 07:52:05;;;;;;;3.88;2.00;;;;;;;9.78;76.81;100874.31;4160474;28;20042;-65
2023/12/28 07:54:09;;;;;;;3.55;1.80;;;;;;;9.83;76.44;100873.50;4163932;28;20044;-65
2023/12/28 07:56:12;;;;;;;3.05;1.73;;;;;;;9.83;76.60;100870.91;4156521;28;20136;-65
2023/12/28 07:58:15;;;;;;;5.65;1.83;;;;;;;9.85;76.02;100877.91;4160687;28;20076;-65
2023/12/28 08:00:18;;;;;;;4.82;2.05;;;;;;;9.88;76.08;100884.91;4162622;28;20126;-65
2023/12/28 08:02:21;;;;;;;4.68;2.05;;;;;;;9.85;76.67;100888.31;4159934;28;20052;-65
2023/12/28 08:04:24;;;;;;;3.88;1.75;;;;;;;9.85;76.80;100875.31;4162417;28;20099;-65
2023/12/28 08:06:27;;;;;;;2.90;1.77;;;;;;;9.86;76.21;100878.81;4161839;28;20034;-65
2023/12/28 08:08:30;;;;;;;3.28;1.77;;;;;;;9.85;76.69;100890.03;4163731;28;20124;-65
2023/12/28 08:10:34;;;;;;;3.03;1.77;;;;;;;9.83;77.08;100887.41;4161378;28;20065;-65
2023/12/28 08:12:37;;;;;;;2.50;1.63;;;;;;;9.84;77.39;100888.25;4163672;28;20403;-65
2023/12/28 08:14:39;;;;;;;3.22;2.03;;;;;;;9.78;77.48;100894.19;4156612;28;20029;-65
2023/12/28 08:16:42;;;;;;;4.35;1.80;;;;;;;9.78;77.15;100902.88;4163088;28;20033;-65
2023/12/28 08:18:45;;;;;;;5.00;2.50;;;;;;;9.84;77.52;100901.25;4160660;28;20041;-66
2023/12/28 08:20:49;;;;;;;4.65;2.13;;;;;;;9.73;77.64;100899.28;4163238;28;20044;-65
2023/12/28 08:22:52;;;;;;;4.13;1.85;;;;;;;9.75;78.04;100894.13;4162325;28;20044;-65
2023/12/28 08:25:15;;;;;;;3.97;2.08;;;;;;;9.70;77.58;100885.34;4164106;28;20037;-65
2023/12/28 08:27:19;;;;;;;3.08;1.77;;;;;;;9.81;77.25;100886.47;4161781;28;20128;-66
2023/12/28 08:29:21;;;;;;;6.45;2.00;;;;;;;9.81;78.02;100891.66;4161511;28;20029;-65
2023/12/28 08:31:24;;;;;;;3.72;1.90;;;;;;;9.77;78.05;100889.84;4159121;28;20041;-65
2023/12/28 08:33:27;;;;;;;3.53;2.25;;;;;;;9.83;77.56;100887.41;4160840;28;20064;-66
2023/12/28 08:35:30;;;;;;;6.13;2.13;;;;;;;9.90;77.17;100891.91;4162092;28;20093;-66
2023/12/28 08:37:33;;;;;;;3.45;1.98;;;;;;;9.89;77.91;100886.66;4163196;28;20033;-65
2023/12/28 08:39:36;;;;;;;6.13;2.00;;;;;;;9.75;78.34;100888.91;4169609;28;20405;-65
2023/12/28 08:41:40;;;;;;;8.90;3.65;;;;;;;9.82;78.08;100877.84;4167201;28;20464;-66
2023/12/28 08:43:45;;;;;;;4.40;1.85;;;;;;;9.85;77.36;100879.66;4171402;28;20099;-66
2023/12/28 08:45:48;;;;;;;3.67;2.30;;;;;;;9.93;77.55;100872.94;4161885;28;20029;-65
2023/12/28 08:47:50;;;;;;;2.95;2.05;;;;;;;9.88;77.75;100884.91;4166858;28;20073;-65
2023/12/28 08:49:52;;;;;;;4.25;2.25;;;;;;;9.84;77.21;100888.25;4164070;28;20039;-65
2023/12/28 08:51:56;;;;;;;3.22;2.00;;;;;;;9.91;77.44;100895.38;4164241;28;20099;-65
2023/12/28 08:53:59;;;;;;;4.05;1.77;;;;;;;9.86;77.80;100891.78;4164947;28;20061;-65
2023/12/28 08:56:02;;;;;;;2.25;1.70;;;;;;;9.86;77.53;100899.59;4163830;28;20042;-64
2023/12/28 08:58:05;;;;;;;2.47;1.70;;;;;;;9.81;78.15;100895.97;4170975;28;20037;-66
2023/12/28 09:00:10;;;;;;;4.32;2.50;;;;;;;9.91;77.21;100905.75;4166453;28;20046;-66
2023/12/28 09:02:13;;;;;;;2.65;1.70;;;;;;;9.93;77.81;100909.28;4166246;28;20384;-66
2023/12/28 09:04:18;;;;;;;4.63;2.10;;;;;;;9.95;77.34;100902.41;4164445;28;20534;-65
2023/12/28 09:06:21;;;;;;;3.87;2.17;;;;;;;10.04;76.97;100896.53;4168133;28;20480;-65
2023/12/28 09:08:24;;;;;;;4.65;1.98;;;;;;;10.02;77.02;100901.69;4165108;28;20092;-65
2023/12/28 09:10:26;;;;;;;2.75;2.05;;;;;;;10.05;76.83;100908.69;4161516;28;20091;-65
2023/12/28 09:12:29;;;;;;;4.45;2.53;;;;;;;10.11;76.56;100907.09;4159938;28;20068;-65
2023/12/28 09:14:32;;;;;;;4.60;2.30;;;;;;;10.10;76.17;100907.97;4157233;28;20033;-65
2023/12/28 09:16:36;;;;;;;6.65;2.05;;;;;;;10.09;76.88;100906.19;4163808;28;20551;-65
2023/12/28 09:18:42;;;;;;;5.65;2.22;;;;;;;10.10;76.00;100901.88;4156028;28;20034;-65
2023/12/28 09:20:45;;;;;;;3.17;1.92;;;;;;;10.12;76.17;100906.25;4165799;28;20141;-65
2023/12/28 09:22:53;;;;;;;5.15;2.10;;;;;;;10.11;76.22;100909.69;4160501;28;20061;-65
2023/12/28 09:24:56;;;;;;;3.03;1.70;;;;;;;10.13;77.00;100900.25;4160942;28;20037;-65
2023/12/28 09:26:59;;;;;;;3.33;1.70;;;;;;;10.18;76.13;100904.63;4157680;28;20498;-65
2023/12/28 09:29:02;;;;;;;4.70;2.00;;;;;;;10.20;75.88;100902.97;4159760;28;20041;-65
2023/12/28 09:31:04;;;;;;;6.85;2.30;;;;;;;10.20;76.25;100902.97;4165837;28;20037;-65
2023/12/28 09:33:08;;;;;;;4.32;1.92;;;;;;;10.22;76.04;100911.66;4166043;28;20041;-65
2023/12/28 09:35:11;;;;;;;4.20;2.22;;;;;;;10.21;76.16;100920.31;4165551;28;20037;-65
2023/12/28 09:37:14;;;;;;;4.78;2.42;;;;;;;10.26;75.76;100926.50;4164548;28;20113;-65
2023/12/28 09:39:16;;;;;;;4.25;2.38;;;;;;;10.29;76.24;100927.44;4157798;28;20615;-65
2023/12/28 09:41:24;;;;;;;3.33;1.83;;;;;;;10.29;76.34;100924.84;4166018;28;20046;-65